sensor_id;sensor_type;location;lat;lon;timestamp;pressure;altitude;pressure_sealevel;temperature;humidity
78198;BME280;67472;51.554;7.812;2023-03-12T00:01:25;100297.22;;;1.34;100.00
78198;BME280;67472;51.554;7.812;2023-03-12T00:04:10;100296.00;;;1.41;100.00
78198;BME280;67472;51.554;7.812;2023-03-12T00:06:54;100301.25;;;1.40;100.00
78198;BME280;67472;51.554;7.812;2023-03-12T00:09:38;100289.84;;;1.42;100.00
78198;BME280;67472;51.554;7.812;2023-03-12T00:12:23;100286.44;;;1.42;100.00
78198;BME280;67472;51.554;7.812;2023-03-12T00:15:08;100290.03;;;1.39;100.00
78198;BME280;67472;51.554;7.812;2023-03-12T00:17:53;100284.91;;;1.38;100.00
78198;BME280;67472;51.554;7.812;2023-03-12T00:20:37;100288.19;;;1.41;100.00
78198;BME280;67472;51.554;7.812;2023-03-12T00:23:22;100294.41;;;1.39;100.00
78198;BME280;67472;51.554;7.812;2023-03-12T00:26:11;100287.19;;;1.44;100.00
78198;BME280;67472;51.554;7.812;2023-03-12T00:28:56;100293.25;;;1.44;100.00
78198;BME280;67472;51.554;7.812;2023-03-12T00:31:40;100284.59;;;1.27;100.00
78198;BME280;67472;51.554;7.812;2023-03-12T00:34:24;100290.50;;;1.30;100.00
78198;BME280;67472;51.554;7.812;2023-03-12T00:37:09;100287.06;;;1.30;100.00
78198;BME280;67472;51.554;7.812;2023-03-12T00:39:53;100281.31;;;1.23;100.00
78198;BME280;67472;51.554;7.812;2023-03-12T00:42:39;100283.38;;;1.17;100.00
78198;BME280;67472;51.554;7.812;2023-03-12T00:45:23;100284.53;;;1.11;100.00
78198;BME280;67472;51.554;7.812;2023-03-12T00:48:07;100274.44;;;1.05;100.00
78198;BME280;67472;51.554;7.812;2023-03-12T00:50:51;100266.88;;;1.00;100.00
78198;BME280;67472;51.554;7.812;2023-03-12T00:53:36;100270.38;;;0.99;100.00
78198;BME280;67472;51.554;7.812;2023-03-12T00:56:20;100263.75;;;0.94;100.00
78198;BME280;67472;51.554;7.812;2023-03-12T00:59:05;100256.94;;;0.91;100.00
78198;BME280;67472;51.554;7.812;2023-03-12T01:01:49;100262.28;;;0.88;100.00
78198;BME280;67472;51.554;7.812;2023-03-12T01:04:34;100263.28;;;0.86;100.00
78198;BME280;67472;51.554;7.812;2023-03-12T01:07:18;100258.16;;;0.84;100.00
78198;BME280;67472;51.554;7.812;2023-03-12T01:10:03;100255.63;;;0.83;100.00
78198;BME280;67472;51.554;7.812;2023-03-12T01:12:48;100252.28;;;0.81;100.00
78198;BME280;67472;51.554;7.812;2023-03-12T01:15:33;100251.44;;;0.80;100.00
78198;BME280;67472;51.554;7.812;2023-03-12T01:18:17;100257.03;;;0.90;100.00
78198;BME280;67472;51.554;7.812;2023-03-12T01:21:02;100258.53;;;0.94;100.00
78198;BME280;67472;51.554;7.812;2023-03-12T01:23:47;100262.28;;;1.05;100.00
78198;BME280;67472;51.554;7.812;2023-03-12T01:26:31;100250.97;;;1.06;100.00
78198;BME280;67472;51.554;7.812;2023-03-12T01:29:15;100255.31;;;1.06;100.00
78198;BME280;67472;51.554;7.812;2023-03-12T01:32:00;100248.13;;;1.11;100.00
78198;BME280;67472;51.554;7.812;2023-03-12T01:34:44;100241.09;;;1.13;100.00
78198;BME280;67472;51.554;7.812;2023-03-12T01:37:30;100242.06;;;1.10;100.00
78198;BME280;67472;51.554;7.812;2023-03-12T01:40:17;100242.72;;;1.16;100.00
78198;BME280;67472;51.554;7.812;2023-03-12T01:43:32;100237.41;;;1.17;100.00
78198;BME280;67472;51.554;7.812;2023-03-12T01:46:32;100236.25;;;1.23;100.00
78198;BME280;67472;51.554;7.812;2023-03-12T01:49:33;100225.22;;;1.35;100.00
78198;BME280;67472;51.554;7.812;2023-03-12T01:52:29;100219.00;;;1.37;100.00
78198;BME280;67472;51.554;7.812;2023-03-12T01:55:15;100211.03;;;1.40;100.00
78198;BME280;67472;51.554;7.812;2023-03-12T01:58:03;100199.78;;;1.40;100.00
78198;BME280;67472;51.554;7.812;2023-03-12T02:00:48;100200.31;;;1.46;100.00
78198;BME280;67472;51.554;7.812;2023-03-12T02:03:33;100193.88;;;1.53;100.00
78198;BME280;67472;51.554;7.812;2023-03-12T02:06:28;100186.13;;;1.52;100.00
78198;BME280;67472;51.554;7.812;2023-03-12T02:09:13;100182.84;;;1.48;100.00
78198;BME280;67472;51.554;7.812;2023-03-12T02:11:58;100170.63;;;1.50;100.00
78198;BME280;67472;51.554;7.812;2023-03-12T02:14:42;100171.47;;;1.51;100.00
78198;BME280;67472;51.554;7.812;2023-03-12T02:17:27;100169.78;;;1.50;100.00
78198;BME280;67472;51.554;7.812;2023-03-12T02:20:33;100163.41;;;1.55;100.00
78198;BME280;67472;51.554;7.812;2023-03-12T02:23:29;100158.25;;;1.54;100.00
78198;BME280;67472;51.554;7.812;2023-03-12T02:26:16;100164.41;;;1.53;100.00
78198;BME280;67472;51.554;7.812;2023-03-12T02:29:04;100158.53;;;1.49;100.00
78198;BME280;67472;51.554;7.812;2023-03-12T02:31:51;100155.16;;;1.47;100.00
78198;BME280;67472;51.554;7.812;2023-03-12T02:34:37;100161.28;;;1.46;100.00
78198;BME280;67472;51.554;7.812;2023-03-12T02:37:21;100167.25;;;1.48;100.00
78198;BME280;67472;51.554;7.812;2023-03-12T02:40:17;100155.59;;;1.55;100.00
78198;BME280;67472;51.554;7.812;2023-03-12T02:43:05;100161.63;;;1.56;100.00
78198;BME280;67472;51.554;7.812;2023-03-12T02:45:51;100160.78;;;1.55;100.00
78198;BME280;67472;51.554;7.812;2023-03-12T02:48:35;100160.78;;;1.55;100.00
78198;BME280;67472;51.554;7.812;2023-03-12T02:51:19;100151.81;;;1.61;100.00
78198;BME280;67472;51.554;7.812;2023-03-12T02:54:04;100143.16;;;1.60;100.00
78198;BME280;67472;51.554;7.812;2023-03-12T02:56:49;100140.38;;;1.63;100.00
78198;BME280;67472;51.554;7.812;2023-03-12T02:59:34;100140.06;;;1.69;100.00
78198;BME280;67472;51.554;7.812;2023-03-12T03:02:18;100135.19;;;1.63;100.00
78198;BME280;67472;51.554;7.812;2023-03-12T03:05:03;100139.22;;;1.69;100.00
78198;BME280;67472;51.554;7.812;2023-03-12T03:07:48;100137.56;;;1.68;100.00
78198;BME280;67472;51.554;7.812;2023-03-12T03:10:33;100140.06;;;1.69;100.00
78198;BME280;67472;51.554;7.812;2023-03-12T03:13:17;100133.00;;;1.71;100.00
78198;BME280;67472;51.554;7.812;2023-03-12T03:16:02;100132.09;;;1.73;100.00
78198;BME280;67472;51.554;7.812;2023-03-12T03:18:47;100131.81;;;1.77;100.00
78198;BME280;67472;51.554;7.812;2023-03-12T03:21:31;100137.13;;;1.76;100.00
78198;BME280;67472;51.554;7.812;2023-03-12T03:24:15;100143.06;;;1.78;100.00
78198;BME280;67472;51.554;7.812;2023-03-12T03:27:01;100133.66;;;1.75;100.00
78198;BME280;67472;51.554;7.812;2023-03-12T03:29:46;100139.63;;;1.77;100.00
78198;BME280;67472;51.554;7.812;2023-03-12T03:32:30;100130.06;;;1.78;100.00
78198;BME280;67472;51.554;7.812;2023-03-12T03:35:15;100123.53;;;1.70;100.00
78198;BME280;67472;51.554;7.812;2023-03-12T03:37:59;100123.03;;;1.64;100.00
78198;BME280;67472;51.554;7.812;2023-03-12T03:40:44;100117.13;;;1.60;100.00
78198;BME280;67472;51.554;7.812;2023-03-12T03:43:30;100117.22;;;1.59;100.00
78198;BME280;67472;51.554;7.812;2023-03-12T03:46:16;100109.66;;;1.54;100.00
78198;BME280;67472;51.554;7.812;2023-03-12T03:49:05;100109.09;;;1.49;100.00
78198;BME280;67472;51.554;7.812;2023-03-12T03:51:51;100102.78;;;1.53;100.00
78198;BME280;67472;51.554;7.812;2023-03-12T03:54:41;100110.66;;;1.52;100.00
78198;BME280;67472;51.554;7.812;2023-03-12T03:57:26;100108.75;;;1.55;100.00
78198;BME280;67472;51.554;7.812;2023-03-12T04:00:13;100102.28;;;1.62;100.00
78198;BME280;67472;51.554;7.812;2023-03-12T04:03:04;100108.41;;;1.61;100.00
78198;BME280;67472;51.554;7.812;2023-03-12T04:05:57;100109.91;;;1.65;100.00
78198;BME280;67472;51.554;7.812;2023-03-12T04:08:43;100106.56;;;1.63;100.00
78198;BME280;67472;51.554;7.812;2023-03-12T04:11:31;100101.19;;;1.66;100.00
78198;BME280;67472;51.554;7.812;2023-03-12T04:14:16;100097.00;;;1.64;100.00
78198;BME280;67472;51.554;7.812;2023-03-12T04:17:02;100094.13;;;1.68;100.00
78198;BME280;67472;51.554;7.812;2023-03-12T04:19:47;100090.59;;;1.69;100.00
78198;BME280;67472;51.554;7.812;2023-03-12T04:22:33;100091.84;;;1.78;100.00
78198;BME280;67472;51.554;7.812;2023-03-12T04:25:17;100090.59;;;1.85;100.00
78198;BME280;67472;51.554;7.812;2023-03-12T04:28:02;100089.47;;;1.89;100.00
78198;BME280;67472;51.554;7.812;2023-03-12T04:30:59;100079.56;;;1.96;100.00
78198;BME280;67472;51.554;7.812;2023-03-12T04:33:45;100075.09;;;1.98;100.00
78198;BME280;67472;51.554;7.812;2023-03-12T04:36:30;100068.13;;;1.98;100.00
78198;BME280;67472;51.554;7.812;2023-03-12T04:39:17;100067.94;;;2.01;100.00
78198;BME280;67472;51.554;7.812;2023-03-12T04:42:03;100058.28;;;2.03;100.00
78198;BME280;67472;51.554;7.812;2023-03-12T04:44:49;100048.63;;;2.05;100.00
78198;BME280;67472;51.554;7.812;2023-03-12T04:47:36;100047.13;;;2.01;100.00
78198;BME280;67472;51.554;7.812;2023-03-12T04:50:20;100048.69;;;2.04;100.00
78198;BME280;67472;51.554;7.812;2023-03-12T04:53:05;100056.25;;;2.08;100.00
78198;BME280;67472;51.554;7.812;2023-03-12T04:55:50;100047.03;;;2.03;100.00
78198;BME280;67472;51.554;7.812;2023-03-12T04:58:37;100038.38;;;2.02;100.00
78198;BME280;67472;51.554;7.812;2023-03-12T05:01:27;100045.19;;;2.05;100.00
78198;BME280;67472;51.554;7.812;2023-03-12T05:04:13;100046.38;;;1.99;100.00
78198;BME280;67472;51.554;7.812;2023-03-12T05:07:00;100044.69;;;1.98;100.00
78198;BME280;67472;51.554;7.812;2023-03-12T05:09:45;100044.50;;;2.01;100.00
78198;BME280;67472;51.554;7.812;2023-03-12T05:12:30;100029.56;;;2.05;100.00
78198;BME280;67472;51.554;7.812;2023-03-12T05:15:17;100034.28;;;1.98;100.00
78198;BME280;67472;51.554;7.812;2023-03-12T05:18:03;100030.66;;;2.01;100.00
78198;BME280;67472;51.554;7.812;2023-03-12T05:21:07;100036.69;;;2.01;100.00
78198;BME280;67472;51.554;7.812;2023-03-12T05:23:52;100037.44;;;2.03;100.00
78198;BME280;67472;51.554;7.812;2023-03-12T05:26:36;100038.28;;;2.04;100.00
78198;BME280;67472;51.554;7.812;2023-03-12T05:29:36;100027.97;;;2.02;100.00
78198;BME280;67472;51.554;7.812;2023-03-12T05:32:21;100025.09;;;2.07;100.00
78198;BME280;67472;51.554;7.812;2023-03-12T05:35:06;100019.88;;;2.07;100.00
78198;BME280;67472;51.554;7.812;2023-03-12T05:37:50;100028.06;;;2.15;100.00
78198;BME280;67472;51.554;7.812;2023-03-12T05:40:35;100029.88;;;2.14;100.00
78198;BME280;67472;51.554;7.812;2023-03-12T05:43:20;100015.72;;;2.18;100.00
78198;BME280;67472;51.554;7.812;2023-03-12T05:46:05;100006.63;;;2.25;100.00
78198;BME280;67472;51.554;7.812;2023-03-12T05:48:52;99998.16;;;2.36;100.00
78198;BME280;67472;51.554;7.812;2023-03-12T05:51:36;99982.06;;;2.44;100.00
78198;BME280;67472;51.554;7.812;2023-03-12T05:54:21;99983.25;;;2.38;100.00
78198;BME280;67472;51.554;7.812;2023-03-12T05:57:09;99979.66;;;2.41;100.00
78198;BME280;67472;51.554;7.812;2023-03-12T05:59:53;99974.25;;;2.44;100.00
78198;BME280;67472;51.554;7.812;2023-03-12T06:02:38;99977.84;;;2.41;100.00
78198;BME280;67472;51.554;7.812;2023-03-12T06:05:23;99985.84;;;2.38;100.00
78198;BME280;67472;51.554;7.812;2023-03-12T06:08:08;99975.72;;;2.34;100.00
78198;BME280;67472;51.554;7.812;2023-03-12T06:10:55;99982.44;;;2.38;100.00
78198;BME280;67472;51.554;7.812;2023-03-12T06:13:43;99983.91;;;2.56;100.00
78198;BME280;67472;51.554;7.812;2023-03-12T06:16:31;99977.22;;;2.66;100.00
78198;BME280;67472;51.554;7.812;2023-03-12T06:19:17;99972.00;;;2.66;100.00
78198;BME280;67472;51.554;7.812;2023-03-12T06:22:05;99963.16;;;2.68;100.00
78198;BME280;67472;51.554;7.812;2023-03-12T06:24:50;99959.88;;;2.79;100.00
78198;BME280;67472;51.554;7.812;2023-03-12T06:27:36;99962.13;;;2.71;100.00
78198;BME280;67472;51.554;7.812;2023-03-12T06:30:20;99955.13;;;2.85;100.00
78198;BME280;67472;51.554;7.812;2023-03-12T06:33:04;99946.75;;;2.80;100.00
78198;BME280;67472;51.554;7.812;2023-03-12T06:36:02;99956.34;;;2.80;100.00
78198;BME280;67472;51.554;7.812;2023-03-12T06:38:46;99953.72;;;2.80;100.00
78198;BME280;67472;51.554;7.812;2023-03-12T06:41:31;99956.53;;;2.77;100.00
78198;BME280;67472;51.554;7.812;2023-03-12T06:44:15;99956.16;;;2.83;100.00
78198;BME280;67472;51.554;7.812;2023-03-12T06:47:00;99962.66;;;2.90;100.00
78198;BME280;67472;51.554;7.812;2023-03-12T06:49:44;99959.09;;;2.91;100.00
78198;BME280;67472;51.554;7.812;2023-03-12T06:52:29;99948.59;;;2.93;100.00
78198;BME280;67472;51.554;7.812;2023-03-12T06:55:13;99958.69;;;3.11;100.00
78198;BME280;67472;51.554;7.812;2023-03-12T06:57:58;99956.22;;;2.96;100.00
78198;BME280;67472;51.554;7.812;2023-03-12T07:00:43;99953.63;;;2.96;100.00
78198;BME280;67472;51.554;7.812;2023-03-12T07:03:28;99953.47;;;3.11;100.00
78198;BME280;67472;51.554;7.812;2023-03-12T07:06:16;99962.00;;;3.27;100.00
78198;BME280;67472;51.554;7.812;2023-03-12T07:09:00;99952.41;;;3.28;100.00
78198;BME280;67472;51.554;7.812;2023-03-12T07:11:45;99950.22;;;3.34;100.00
78198;BME280;67472;51.554;7.812;2023-03-12T07:14:29;99959.13;;;3.45;100.00
78198;BME280;67472;51.554;7.812;2023-03-12T07:17:14;99949.44;;;3.47;100.00
78198;BME280;67472;51.554;7.812;2023-03-12T07:19:58;99938.97;;;3.47;100.00
78198;BME280;67472;51.554;7.812;2023-03-12T07:22:42;99948.00;;;3.55;100.00
78198;BME280;67472;51.554;7.812;2023-03-12T07:25:29;99956.91;;;3.78;100.00
78198;BME280;67472;51.554;7.812;2023-03-12T07:28:14;99957.47;;;3.83;100.00
78198;BME280;67472;51.554;7.812;2023-03-12T07:31:03;99950.25;;;3.86;100.00
78198;BME280;67472;51.554;7.812;2023-03-12T07:33:48;99947.72;;;3.72;100.00
78198;BME280;67472;51.554;7.812;2023-03-12T07:36:33;99956.78;;;3.67;100.00
78198;BME280;67472;51.554;7.812;2023-03-12T07:39:17;99949.16;;;3.64;100.00
78198;BME280;67472;51.554;7.812;2023-03-12T07:42:02;99956.91;;;3.65;100.00
78198;BME280;67472;51.554;7.812;2023-03-12T07:44:50;99958.66;;;3.65;100.00
78198;BME280;67472;51.554;7.812;2023-03-12T07:47:34;99952.50;;;3.66;100.00
78198;BME280;67472;51.554;7.812;2023-03-12T07:50:20;99953.34;;;3.66;100.00
78198;BME280;67472;51.554;7.812;2023-03-12T07:53:05;99946.59;;;3.76;100.00
78198;BME280;67472;51.554;7.812;2023-03-12T07:55:49;99953.38;;;3.79;100.00
78198;BME280;67472;51.554;7.812;2023-03-12T07:58:34;99958.78;;;3.76;100.00
78198;BME280;67472;51.554;7.812;2023-03-12T08:01:19;99954.63;;;3.73;100.00
78198;BME280;67472;51.554;7.812;2023-03-12T08:04:04;99963.50;;;3.71;100.00
78198;BME280;67472;51.554;7.812;2023-03-12T08:06:49;99962.44;;;3.73;100.00
78198;BME280;67472;51.554;7.812;2023-03-12T08:09:33;99954.81;;;3.70;100.00
78198;BME280;67472;51.554;7.812;2023-03-12T08:12:19;99954.28;;;3.78;100.00
78198;BME280;67472;51.554;7.812;2023-03-12T08:15:05;99956.19;;;3.76;100.00
78198;BME280;67472;51.554;7.812;2023-03-12T08:17:52;99961.28;;;3.65;100.00
78198;BME280;67472;51.554;7.812;2023-03-12T08:20:37;99962.94;;;3.66;100.00
78198;BME280;67472;51.554;7.812;2023-03-12T08:23:22;99959.47;;;3.53;100.00
78198;BME280;67472;51.554;7.812;2023-03-12T08:26:07;99956.81;;;3.40;100.00
78198;BME280;67472;51.554;7.812;2023-03-12T08:28:52;99974.09;;;3.55;100.00
78198;BME280;67472;51.554;7.812;2023-03-12T08:31:37;99983.28;;;3.48;100.00
78198;BME280;67472;51.554;7.812;2023-03-12T08:34:21;99984.66;;;3.54;100.00
78198;BME280;67472;51.554;7.812;2023-03-12T08:37:06;99974.59;;;3.48;100.00
78198;BME280;67472;51.554;7.812;2023-03-12T08:39:50;99969.28;;;3.49;100.00
78198;BME280;67472;51.554;7.812;2023-03-12T08:42:35;99961.97;;;3.54;100.00
78198;BME280;67472;51.554;7.812;2023-03-12T08:45:19;99957.59;;;3.55;100.00
78198;BME280;67472;51.554;7.812;2023-03-12T08:48:05;99953.00;;;3.58;100.00
78198;BME280;67472;51.554;7.812;2023-03-12T08:50:50;99958.47;;;3.68;100.00
78198;BME280;67472;51.554;7.812;2023-03-12T08:53:35;99963.09;;;3.77;100.00
78198;BME280;67472;51.554;7.812;2023-03-12T08:56:21;99954.84;;;3.83;100.00
78198;BME280;67472;51.554;7.812;2023-03-12T08:59:35;99957.16;;;4.00;100.00
78198;BME280;67472;51.554;7.812;2023-03-12T09:02:51;99952.47;;;4.18;100.00
78198;BME280;67472;51.554;7.812;2023-03-12T09:06:11;99949.66;;;4.21;100.00
78198;BME280;67472;51.554;7.812;2023-03-12T09:08:59;99939.91;;;4.35;100.00
78198;BME280;67472;51.554;7.812;2023-03-12T09:11:48;99941.50;;;4.38;100.00
78198;BME280;67472;51.554;7.812;2023-03-12T09:14:33;99932.91;;;4.36;100.00
78198;BME280;67472;51.554;7.812;2023-03-12T09:17:17;99940.66;;;4.37;100.00
78198;BME280;67472;51.554;7.812;2023-03-12T09:20:04;99943.91;;;4.41;100.00
78198;BME280;67472;51.554;7.812;2023-03-12T09:22:51;99928.28;;;4.52;100.00
78198;BME280;67472;51.554;7.812;2023-03-12T09:25:35;99925.84;;;4.62;100.00
78198;BME280;67472;51.554;7.812;2023-03-12T09:28:20;99929.31;;;4.62;100.00
78198;BME280;67472;51.554;7.812;2023-03-12T09:31:05;99933.25;;;4.80;100.00
78198;BME280;67472;51.554;7.812;2023-03-12T09:33:51;99934.38;;;4.89;100.00
78198;BME280;67472;51.554;7.812;2023-03-12T09:36:35;99920.00;;;4.94;100.00
78198;BME280;67472;51.554;7.812;2023-03-12T09:39:20;99914.97;;;5.04;100.00
78198;BME280;67472;51.554;7.812;2023-03-12T09:42:17;99918.91;;;5.09;100.00
78198;BME280;67472;51.554;7.812;2023-03-12T09:45:06;99924.03;;;5.11;100.00
78198;BME280;67472;51.554;7.812;2023-03-12T09:47:56;99913.69;;;5.33;100.00
78198;BME280;67472;51.554;7.812;2023-03-12T09:50:44;99909.19;;;5.46;100.00
78198;BME280;67472;51.554;7.812;2023-03-12T09:53:37;99900.41;;;5.47;100.00
78198;BME280;67472;51.554;7.812;2023-03-12T09:56:25;99896.44;;;5.77;100.00
78198;BME280;67472;51.554;7.812;2023-03-12T09:59:11;99895.00;;;5.72;100.00
78198;BME280;67472;51.554;7.812;2023-03-12T10:01:59;99897.00;;;5.69;100.00
78198;BME280;67472;51.554;7.812;2023-03-12T10:05:52;99894.22;;;5.83;100.00
78198;BME280;67472;51.554;7.812;2023-03-12T10:08:22;99890.97;;;5.80;100.00
78198;BME280;67472;51.554;7.812;2023-03-12T10:11:17;99900.22;;;5.61;100.00
78198;BME280;67472;51.554;7.812;2023-03-12T10:20:45;99913.78;;;5.66;100.00
78198;BME280;67472;51.554;7.812;2023-03-12T10:26:21;99923.13;;;5.82;100.00
78198;BME280;67472;51.554;7.812;2023-03-12T10:29:33;99915.78;;;5.87;100.00
78198;BME280;67472;51.554;7.812;2023-03-12T10:32:32;99920.78;;;5.90;100.00
78198;BME280;67472;51.554;7.812;2023-03-12T10:35:26;99927.31;;;5.84;100.00
78198;BME280;67472;51.554;7.812;2023-03-12T10:38:24;99931.22;;;5.79;100.00
78198;BME280;67472;51.554;7.812;2023-03-12T10:41:21;99934.25;;;5.61;100.00
78198;BME280;67472;51.554;7.812;2023-03-12T10:44:07;99950.91;;;5.60;100.00
78198;BME280;67472;51.554;7.812;2023-03-12T10:47:04;99937.53;;;5.76;100.00
78198;BME280;67472;51.554;7.812;2023-03-12T10:49:50;99948.63;;;5.80;100.00
78198;BME280;67472;51.554;7.812;2023-03-12T10:52:36;99950.13;;;5.95;100.00
78198;BME280;67472;51.554;7.812;2023-03-12T10:55:28;99939.22;;;6.34;100.00
78198;BME280;67472;51.554;7.812;2023-03-12T10:58:24;99948.16;;;6.65;100.00
78198;BME280;67472;51.554;7.812;2023-03-12T11:01:28;99948.06;;;6.55;100.00
78198;BME280;67472;51.554;7.812;2023-03-12T11:04:19;99941.59;;;6.93;100.00
78198;BME280;67472;51.554;7.812;2023-03-12T11:07:17;99943.16;;;6.84;100.00
78198;BME280;67472;51.554;7.812;2023-03-12T11:13:00;99942.91;;;6.65;100.00
78198;BME280;67472;51.554;7.812;2023-03-12T11:15:45;99942.56;;;6.58;100.00
78198;BME280;67472;51.554;7.812;2023-03-12T11:18:32;99943.06;;;6.52;100.00
78198;BME280;67472;51.554;7.812;2023-03-12T11:21:18;99943.97;;;6.73;100.00
78198;BME280;67472;51.554;7.812;2023-03-12T11:24:09;99949.00;;;6.65;100.00
78198;BME280;67472;51.554;7.812;2023-03-12T11:27:05;99944.13;;;6.72;100.00
78198;BME280;67472;51.554;7.812;2023-03-12T11:29:54;99948.19;;;6.76;100.00
78198;BME280;67472;51.554;7.812;2023-03-12T11:32:48;99951.63;;;6.65;100.00
78198;BME280;67472;51.554;7.812;2023-03-12T11:39:04;99954.97;;;6.67;100.00
78198;BME280;67472;51.554;7.812;2023-03-12T11:51:12;99958.63;;;6.98;100.00
78198;BME280;67472;51.554;7.812;2023-03-12T11:57:17;99965.91;;;6.95;100.00
78198;BME280;67472;51.554;7.812;2023-03-12T12:09:46;99973.03;;;7.15;100.00
78198;BME280;67472;51.554;7.812;2023-03-12T12:15:43;99973.81;;;7.37;100.00
78198;BME280;67472;51.554;7.812;2023-03-12T12:25:11;99955.03;;;7.53;100.00
78198;BME280;67472;51.554;7.812;2023-03-12T12:28:34;99960.94;;;7.66;100.00
78198;BME280;67472;51.554;7.812;2023-03-12T12:31:36;99957.06;;;7.81;100.00
78198;BME280;67472;51.554;7.812;2023-03-12T12:40:34;99959.88;;;8.10;100.00
78198;BME280;67472;51.554;7.812;2023-03-12T12:43:37;99960.16;;;8.28;100.00
78198;BME280;67472;51.554;7.812;2023-03-12T12:46:33;99963.53;;;8.30;100.00
78198;BME280;67472;51.554;7.812;2023-03-12T12:49:26;99952.59;;;8.34;100.00
78198;BME280;67472;51.554;7.812;2023-03-12T12:52:20;99953.94;;;8.29;100.00
78198;BME280;67472;51.554;7.812;2023-03-12T12:55:20;99953.09;;;8.28;100.00
78198;BME280;67472;51.554;7.812;2023-03-12T12:58:24;99946.88;;;8.29;100.00
78198;BME280;67472;51.554;7.812;2023-03-12T13:01:10;99934.31;;;8.33;100.00
78198;BME280;67472;51.554;7.812;2023-03-12T13:04:16;99927.22;;;8.33;100.00
78198;BME280;67472;51.554;7.812;2023-03-12T13:10:04;99922.19;;;8.51;100.00
78198;BME280;67472;51.554;7.812;2023-03-12T13:12:54;99922.97;;;8.72;100.00
78198;BME280;67472;51.554;7.812;2023-03-12T13:15:41;99917.56;;;8.74;100.00
78198;BME280;67472;51.554;7.812;2023-03-12T13:18:27;99918.47;;;8.53;100.00
78198;BME280;67472;51.554;7.812;2023-03-12T13:21:25;99930.97;;;8.61;100.00
78198;BME280;67472;51.554;7.812;2023-03-12T13:27:19;99916.47;;;8.76;100.00
78198;BME280;67472;51.554;7.812;2023-03-12T13:33:18;99911.56;;;9.02;100.00
78198;BME280;67472;51.554;7.812;2023-03-12T13:36:21;99906.94;;;8.85;100.00
78198;BME280;67472;51.554;7.812;2023-03-12T13:41:54;99903.25;;;9.16;100.00
78198;BME280;67472;51.554;7.812;2023-03-12T13:44:39;99899.78;;;9.35;100.00
78198;BME280;67472;51.554;7.812;2023-03-12T13:47:35;99888.97;;;9.47;100.00
78198;BME280;67472;51.554;7.812;2023-03-12T13:50:20;99876.63;;;9.57;100.00
78198;BME280;67472;51.554;7.812;2023-03-12T13:53:15;99868.72;;;9.48;100.00
78198;BME280;67472;51.554;7.812;2023-03-12T13:56:11;99870.38;;;9.58;100.00
78198;BME280;67472;51.554;7.812;2023-03-12T13:59:04;99870.66;;;9.65;100.00
78198;BME280;67472;51.554;7.812;2023-03-12T14:01:55;99878.31;;;9.39;100.00
78198;BME280;67472;51.554;7.812;2023-03-12T14:04:41;99869.28;;;9.32;100.00
78198;BME280;67472;51.554;7.812;2023-03-12T14:07:48;99885.38;;;9.48;100.00
78198;BME280;67472;51.554;7.812;2023-03-12T14:19:12;99874.53;;;9.80;100.00
78198;BME280;67472;51.554;7.812;2023-03-12T14:22:01;99874.81;;;9.77;100.00
78198;BME280;67472;51.554;7.812;2023-03-12T14:24:50;99887.59;;;9.62;100.00
78198;BME280;67472;51.554;7.812;2023-03-12T14:27:39;99888.00;;;9.58;100.00
78198;BME280;67472;51.554;7.812;2023-03-12T14:33:14;99890.78;;;9.66;100.00
78198;BME280;67472;51.554;7.812;2023-03-12T14:36:14;99885.34;;;9.68;100.00
78198;BME280;67472;51.554;7.812;2023-03-12T14:39:15;99877.56;;;9.76;100.00
78198;BME280;67472;51.554;7.812;2023-03-12T14:42:05;99882.72;;;9.77;100.00
78198;BME280;67472;51.554;7.812;2023-03-12T14:44:56;99874.75;;;9.96;100.00
78198;BME280;67472;51.554;7.812;2023-03-12T14:47:52;99876.25;;;10.08;100.00
78198;BME280;67472;51.554;7.812;2023-03-12T14:50:39;99865.16;;;10.14;100.00
78198;BME280;67472;51.554;7.812;2023-03-12T14:53:29;99862.06;;;10.19;100.00
78198;BME280;67472;51.554;7.812;2023-03-12T14:59:43;99871.66;;;10.30;100.00
78198;BME280;67472;51.554;7.812;2023-03-12T15:02:36;99876.88;;;10.39;100.00
78198;BME280;67472;51.554;7.812;2023-03-12T15:05:21;99893.81;;;10.37;100.00
78198;BME280;67472;51.554;7.812;2023-03-12T15:08:10;99875.34;;;10.37;100.00
78198;BME280;67472;51.554;7.812;2023-03-12T15:10:57;99876.19;;;10.37;100.00
78198;BME280;67472;51.554;7.812;2023-03-12T15:13:42;99873.81;;;10.44;100.00
78198;BME280;67472;51.554;7.812;2023-03-12T15:16:26;99867.41;;;10.46;100.00
78198;BME280;67472;51.554;7.812;2023-03-12T15:19:12;99863.00;;;10.37;100.00
78198;BME280;67472;51.554;7.812;2023-03-12T15:21:58;99876.56;;;10.42;100.00
78198;BME280;67472;51.554;7.812;2023-03-12T15:24:45;99872.34;;;10.59;100.00
78198;BME280;67472;51.554;7.812;2023-03-12T15:27:32;99866.31;;;10.39;100.00
78198;BME280;67472;51.554;7.812;2023-03-12T15:30:22;99875.78;;;10.59;100.00
78198;BME280;67472;51.554;7.812;2023-03-12T15:36:02;99866.78;;;10.62;100.00
78198;BME280;67472;51.554;7.812;2023-03-12T15:39:11;99865.34;;;10.67;100.00
78198;BME280;67472;51.554;7.812;2023-03-12T15:41:55;99861.19;;;10.65;100.00
78198;BME280;67472;51.554;7.812;2023-03-12T15:47:39;99862.56;;;10.69;100.00
78198;BME280;67472;51.554;7.812;2023-03-12T15:50:49;99860.19;;;10.66;100.00
78198;BME280;67472;51.554;7.812;2023-03-12T15:53:34;99856.78;;;10.56;100.00
78198;BME280;67472;51.554;7.812;2023-03-12T15:56:22;99856.94;;;10.54;100.00
78198;BME280;67472;51.554;7.812;2023-03-12T16:02:00;99850.00;;;10.53;100.00
78198;BME280;67472;51.554;7.812;2023-03-12T16:04:44;99852.19;;;10.58;100.00
78198;BME280;67472;51.554;7.812;2023-03-12T16:07:30;99841.91;;;10.55;100.00
78198;BME280;67472;51.554;7.812;2023-03-12T16:10:17;99847.88;;;10.57;100.00
78198;BME280;67472;51.554;7.812;2023-03-12T16:13:02;99843.44;;;10.57;100.00
78198;BME280;67472;51.554;7.812;2023-03-12T16:15:48;99847.28;;;10.63;100.00